Terminal Aerodrome Forecast
Issued by NWS Charleston, WV

Current Version | Previous Version | Graphics & Text | Print | Product List | Glossary On
Versions: 1 2 3 4 5 6 7 8 9 10 11 12 13 14 15 16 17 18 19 20 21 22 23 24 25 26 27 28 29 30
000
FTUS41 KRLX 211511 AAA
TAFCRW
TAF AMD
KCRW 211511Z 2115/2212 21010G25KT P6SM SCT040 SCT100 WS020/20040KT
     FM211900 24008G18KT 6SM SHRA VCTS BKN040CB
     FM212200 30005KT P6SM SHRA BKN015
     FM220300 02003KT 2SM SHRA BR OVC008=

USA.gov is the U.S. government's official web portal to all federal, state and local government web resources and services.